Time;durP1;ratioP1;P1;durP2;ratioP2;P2;SDS_P1;SDS_P2;PMS_P1;PMS_P2;Temp;Humidity;BMP_temperature;BMP_pressure;BME280_temperature;BME280_humidity;BME280_pressure;Samples;Min_cycle;Max_cycle;Signal;HPM_P1;HPM_P2
2022/09/13 00:00:17;;;;;;;10.67;1.20;;;;;;;24.02;53.36;100640.25;4756269;30;19918;-83
2022/09/13 00:03:03;;;;;;;1.38;0.90;;;;;;;24.23;52.80;100638.09;4774192;29;20304;-82
2022/09/13 00:05:48;;;;;;;9.00;0.90;;;;;;;24.22;52.67;100638.53;4779400;29;20519;-85
2022/09/13 00:08:33;;;;;;;3.35;1.00;;;;;;;24.14;52.69;100632.19;4780922;29;20063;-84
2022/09/13 00:11:24;;;;;;;2.30;0.88;;;;;;;24.14;52.73;100631.41;4785043;29;20068;-82
2022/09/13 00:14:09;;;;;;;7.22;0.88;;;;;;;24.14;52.84;100617.50;4747190;30;20063;-79
2022/09/13 00:16:54;;;;;;;3.42;0.68;;;;;;;24.03;52.92;100619.56;4748981;30;20059;-81
2022/09/13 00:19:38;;;;;;;;;;;;;;;23.99;53.17;100624.38;4751166;30;20405;-79
2022/09/13 00:22:23;;;;;;;2.83;0.70;;;;;;;23.80;53.45;100612.63;4752611;30;19918;-80
2022/09/13 00:25:08;;;;;;;0.98;0.60;;;;;;;23.77;53.67;100616.19;4750963;30;20063;-82
2022/09/13 00:27:53;;;;;;;5.55;0.90;;;;;;;24.07;53.01;100626.72;4754166;30;20051;-80
2022/09/13 00:30:37;;;;;;;1.45;0.90;;;;;;;24.02;53.04;100620.78;4751956;30;20055;-79
2022/09/13 00:33:22;;;;;;;2.95;0.90;;;;;;;23.99;53.27;100618.81;4751524;30;20055;-80
2022/09/13 00:36:09;;;;;;;4.15;0.73;;;;;;;24.06;52.83;100621.56;4766934;30;20055;-82
2022/09/13 00:38:54;;;;;;;2.40;0.80;;;;;;;24.01;53.12;100622.78;4765054;30;20051;-81
2022/09/13 00:41:39;;;;;;;0.75;0.70;;;;;;;24.07;53.05;100617.59;4763469;30;20079;-82
2022/09/13 00:44:43;;;;;;;3.30;0.73;;;;;;;24.07;52.82;100620.34;4763556;30;20074;-81
2022/09/13 00:47:39;;;;;;;3.25;0.98;;;;;;;24.11;52.63;100621.13;4764915;30;20070;-80
2022/09/13 00:50:30;;;;;;;3.05;0.80;;;;;;;24.08;52.53;100621.91;4751380;30;20408;-81
2022/09/13 00:53:25;;;;;;;1.35;0.70;;;;;;;23.96;52.97;100617.66;4765339;30;20420;-80
2022/09/13 00:56:33;;;;;;;0.80;0.77;;;;;;;23.98;52.79;100620.00;4751010;30;20140;-81
2022/09/13 00:59:26;;;;;;;1.40;0.70;;;;;;;24.02;52.58;100618.03;4753707;30;20055;-82
2022/09/13 01:02:11;;;;;;;3.90;0.90;;;;;;;23.99;52.68;100619.63;4751680;30;20051;-82
2022/09/13 01:04:56;;;;;;;1.00;0.90;;;;;;;23.95;52.70;100618.06;4755144;30;20059;-82
2022/09/13 01:07:41;;;;;;;3.10;0.90;;;;;;;23.96;52.64;100619.66;4765893;30;20055;-81
2022/09/13 01:10:27;;;;;;;1.25;0.57;;;;;;;23.90;52.61;100616.50;4768675;30;20071;-82
2022/09/13 01:13:17;;;;;;;4.03;1.20;;;;;;;23.92;52.37;100611.34;4751190;30;20055;-81
2022/09/13 01:16:01;;;;;;;1.05;0.77;;;;;;;23.79;52.83;100616.59;4749112;30;20064;-83
2022/09/13 01:18:46;;;;;;;1.73;1.10;;;;;;;23.86;52.83;100616.53;4746582;30;20067;-82
2022/09/13 01:22:09;;;;;;;3.42;0.90;;;;;;;23.90;52.38;100615.72;4744611;30;20079;-82
2022/09/13 01:25:32;;;;;;;7.68;1.23;;;;;;;23.88;52.55;100607.78;4743117;30;20047;-80
2022/09/13 01:28:29;;;;;;;2.05;1.35;;;;;;;23.83;52.65;100608.22;4751160;30;20063;-79
2022/09/13 01:31:43;;;;;;;2.97;0.85;;;;;;;23.85;52.85;100603.84;4751446;30;20574;-81
2022/09/13 01:34:38;;;;;;;4.05;1.08;;;;;;;23.80;53.02;100607.06;4750440;30;20048;-81
2022/09/13 01:37:30;;;;;;;;;;;;;;;23.78;53.00;100605.88;4751958;30;20055;-82
2022/09/13 01:40:42;;;;;;;1.85;0.85;;;;;;;23.83;52.76;100606.22;4762602;30;19918;-83
2022/09/13 01:43:59;;;;;;;2.08;1.15;;;;;;;23.82;53.03;100604.66;4766271;30;20069;-84
2022/09/13 01:46:56;;;;;;;1.95;1.00;;;;;;;23.74;53.04;100602.34;4767538;30;20051;-82
2022/09/13 01:49:57;;;;;;;2.22;1.00;;;;;;;23.71;53.21;100601.19;5089377;27;20368;-82
2022/09/13 01:52:58;;;;;;;1.45;0.90;;;;;;;23.67;53.21;100597.63;5094586;28;20067;-81
2022/09/13 01:55:50;;;;;;;5.68;1.30;;;;;;;23.70;53.30;100601.56;5088978;28;20043;-78
2022/09/13 01:58:38;;;;;;;2.75;1.42;;;;;;;23.65;53.26;100596.47;5088834;28;20052;-81
2022/09/13 02:01:57;;;;;;;1.73;1.13;;;;;;;23.62;53.49;100602.84;5089956;28;20051;-79
2022/09/13 02:04:48;;;;;;;3.30;1.20;;;;;;;23.62;53.19;100611.94;5089113;28;20075;-77
2022/09/13 02:07:39;;;;;;;9.63;1.55;;;;;;;23.64;53.17;100600.41;5072860;28;20439;-82
2022/09/13 02:10:33;;;;;;;3.88;1.00;;;;;;;23.67;53.20;100607.97;5071073;28;20055;-81
2022/09/13 02:13:26;;;;;;;1.45;1.10;;;;;;;23.66;52.97;100607.16;5068228;28;20047;-80
2022/09/13 02:16:17;;;;;;;3.72;1.17;;;;;;;23.62;53.11;100600.81;5075638;28;20067;-81
2022/09/13 02:19:13;;;;;;;3.90;1.25;;;;;;;23.62;53.12;100597.28;5087365;28;20044;-82
2022/09/13 02:21:59;;;;;;;2.05;1.77;;;;;;;23.61;52.98;100588.16;5068817;28;20060;-83
2022/09/13 02:24:49;;;;;;;1.95;1.60;;;;;;;23.60;53.24;100585.78;5074630;28;20526;-83
2022/09/13 02:27:36;;;;;;;1.75;1.27;;;;;;;23.60;53.08;100581.03;5084528;28;20521;-83
2022/09/13 02:30:21;;;;;;;3.92;1.33;;;;;;;23.57;53.09;100579.03;5093396;28;20051;-81
2022/09/13 02:33:17;;;;;;;2.95;1.38;;;;;;;23.61;52.96;100571.50;5091343;28;20055;-84
2022/09/13 02:36:07;;;;;;;3.65;1.40;;;;;;;23.59;53.20;100571.09;5088755;28;20043;-82
2022/09/13 02:38:58;;;;;;;3.20;1.05;;;;;;;23.57;53.14;100572.72;5071900;28;20545;-81
2022/09/13 02:42:01;;;;;;;4.07;1.50;;;;;;;23.60;53.17;100578.25;5068421;28;20052;-82
2022/09/13 02:44:53;;;;;;;1.88;1.20;;;;;;;23.64;52.56;100569.88;5068012;28;20051;-81
2022/09/13 02:48:00;;;;;;;7.90;2.55;;;;;;;23.53;53.14;100567.19;5080917;28;20047;-80
2022/09/13 02:50:55;;;;;;;1.45;0.80;;;;;;;23.49;53.36;100565.63;5088813;28;20540;-82
2022/09/13 02:53:59;;;;;;;5.60;1.10;;;;;;;23.32;53.53;100559.75;5091818;22;20060;-81
2022/09/13 02:56:46;;;;;;;18.17;2.10;;;;;;;23.41;53.26;100564.88;5046405;28;20055;-78
2022/09/13 02:59:32;;;;;;;3.45;1.20;;;;;;;23.26;53.42;100561.34;5063292;28;20040;-78
2022/09/13 03:02:20;;;;;;;6.38;1.42;;;;;;;23.46;53.25;100556.13;5035305;28;20080;-77
2022/09/13 03:05:06;;;;;;;4.05;1.05;;;;;;;23.28;53.28;100553.44;5015278;28;20053;-77
2022/09/13 03:07:51;;;;;;;7.60;1.35;;;;;;;23.31;53.37;100555.41;5025630;28;20057;-75
2022/09/13 03:10:48;;;;;;;7.80;1.20;;;;;;;23.30;53.54;100550.25;5018060;28;20065;-77
2022/09/13 03:13:36;;;;;;;2.53;1.27;;;;;;;23.31;53.70;100541.53;5024347;28;20060;-82
2022/09/13 03:16:36;;;;;;;3.35;1.40;;;;;;;23.29;53.53;100549.47;5025221;28;20052;-79
2022/09/13 03:19:45;;;;;;;5.03;1.10;;;;;;;23.32;53.30;100548.63;5017368;28;20044;-78
2022/09/13 03:22:29;;;;;;;2.67;1.02;;;;;;;23.22;53.50;100538.38;5028821;28;20048;-79
2022/09/13 03:25:29;;;;;;;4.15;1.15;;;;;;;23.21;53.51;100531.25;5029091;28;20052;-79
2022/09/13 03:28:38;;;;;;;2.78;0.80;;;;;;;23.24;53.34;100535.22;5026999;28;20041;-79
2022/09/13 03:31:35;;;;;;;5.55;1.05;;;;;;;23.19;53.63;100530.09;5021151;28;20053;-78
2022/09/13 03:34:46;;;;;;;2.95;1.02;;;;;;;23.18;53.63;100531.28;5018752;28;20045;-77
2022/09/13 03:38:19;;;;;;;5.30;1.05;;;;;;;23.17;53.40;100532.47;5018306;28;20049;-78
2022/09/13 03:41:12;;;;;;;1.10;0.80;;;;;;;23.10;53.50;100533.31;5019177;28;20045;-79
2022/09/13 03:44:01;;;;;;;1.58;1.23;;;;;;;22.98;53.89;100531.78;5020240;28;20328;-77
2022/09/13 03:46:50;;;;;;;2.60;1.20;;;;;;;22.79;54.37;100531.50;5013603;28;20049;-77
2022/09/13 03:49:38;;;;;;;3.17;1.60;;;;;;;22.51;54.92;100533.13;5012452;28;20056;-78
2022/09/13 03:52:23;;;;;;;2.83;0.85;;;;;;;22.52;54.97;100528.38;5017266;28;20049;-78
2022/09/13 03:55:08;;;;;;;1.13;0.80;;;;;;;22.63;54.78;100526.38;5029594;28;20060;-78
2022/09/13 03:57:53;;;;;;;4.63;1.13;;;;;;;22.66;54.44;100522.78;5012255;28;20416;-78
2022/09/13 04:00:39;;;;;;;4.90;1.55;;;;;;;22.73;54.45;100525.56;5011114;28;20064;-77
2022/09/13 04:03:23;;;;;;;2.95;1.00;;;;;;;22.61;54.33;100528.75;5017071;28;20420;-78
2022/09/13 04:06:08;;;;;;;2.33;0.90;;;;;;;22.73;54.47;100530.31;5016314;28;20444;-78
2022/09/13 04:08:53;;;;;;;4.30;0.90;;;;;;;22.81;54.20;100534.63;5019026;28;20065;-77
2022/09/13 04:11:38;;;;;;;0.57;0.57;;;;;;;23.06;53.73;100529.75;5016864;28;20057;-78
2022/09/13 04:14:25;;;;;;;3.78;1.30;;;;;;;23.00;53.75;100529.41;5018926;28;20056;-78
2022/09/13 04:17:11;;;;;;;6.75;1.17;;;;;;;23.08;53.62;100526.59;5019381;28;20053;-77
2022/09/13 04:19:56;;;;;;;6.57;1.30;;;;;;;22.99;53.60;100527.03;5023419;28;20041;-78
2022/09/13 04:22:41;;;;;;;;;;;;;;;22.94;53.70;100525.47;5023857;28;20068;-78
2022/09/13 04:25:25;;;;;;;2.80;1.40;;;;;;;22.89;53.71;100520.34;5015205;28;20300;-78
2022/09/13 04:28:10;;;;;;;7.50;1.40;;;;;;;22.86;53.90;100528.66;5019189;28;20416;-77
2022/09/13 04:30:54;;;;;;;1.13;1.02;;;;;;;22.82;54.00;100531.47;5019485;28;20072;-78
2022/09/13 04:33:40;;;;;;;;;;;;;;;22.83;53.78;100532.25;5023785;28;20057;-78
2022/09/13 04:36:25;;;;;;;3.53;0.82;;;;;;;22.87;53.48;100528.28;5019976;28;19913;-77
2022/09/13 04:39:12;;;;;;;2.00;1.20;;;;;;;22.82;53.78;100531.47;5019137;28;20048;-77
2022/09/13 04:41:58;;;;;;;3.80;1.50;;;;;;;22.69;54.00;100522.00;5020891;28;20053;-77
2022/09/13 04:44:43;;;;;;;1.95;1.30;;;;;;;21.74;56.24;100533.97;5020270;28;20418;-78
2022/09/13 04:47:29;;;;;;;3.17;1.40;;;;;;;22.13;56.09;100528.47;5022433;28;20125;-77
2022/09/13 04:50:14;;;;;;;4.57;1.30;;;;;;;22.56;54.82;100534.69;5022767;28;20053;-78
2022/09/13 04:52:59;;;;;;;4.82;1.50;;;;;;;22.35;55.34;100535.53;5019146;28;20045;-78
2022/09/13 04:55:44;;;;;;;5.43;1.33;;;;;;;22.36;55.89;100537.13;5021871;28;20053;-78
2022/09/13 04:58:29;;;;;;;12.02;2.60;;;;;;;22.42;56.49;100531.97;5021809;28;20041;-87
2022/09/13 05:01:14;;;;;;;12.55;1.60;;;;;;;22.10;55.77;100524.50;5017040;28;20511;-77
2022/09/13 05:03:59;;;;;;;5.47;3.17;;;;;;;21.73;56.06;100526.88;5010588;28;20065;-77
2022/09/13 05:06:43;;;;;;;7.43;1.55;;;;;;;21.63;58.58;100533.22;5012581;28;20519;-78
2022/09/13 05:09:28;;;;;;;3.35;1.40;;;;;;;22.13;57.29;100540.34;5010435;28;20064;-77
2022/09/13 05:12:13;;;;;;;2.35;1.40;;;;;;;22.60;56.58;100539.03;5012813;28;20065;-81
2022/09/13 05:14:57;;;;;;;6.88;1.40;;;;;;;22.80;56.26;100541.38;5022271;28;20516;-77
2022/09/13 05:17:42;;;;;;;5.35;1.63;;;;;;;22.74;56.20;100543.00;5012287;28;20421;-76
2022/09/13 05:20:26;;;;;;;3.22;1.73;;;;;;;22.41;56.27;100545.03;5011548;28;20424;-77
2022/09/13 05:23:11;;;;;;;8.25;2.60;;;;;;;21.76;56.83;100537.16;5008051;28;20049;-76
2022/09/13 05:25:57;;;;;;;;;;;;;;;21.49;57.74;100544.25;5009140;28;20409;-76
2022/09/13 05:28:42;;;;;;;7.72;1.70;;;;;;;21.52;59.23;100541.50;5011369;28;19917;-76
2022/09/13 05:31:33;;;;;;;6.18;1.70;;;;;;;21.84;58.60;100551.81;5010842;28;20053;-77
2022/09/13 05:34:18;;;;;;;13.20;1.45;;;;;;;22.02;57.43;100558.94;5011734;28;20045;-76
2022/09/13 05:37:03;;;;;;;9.93;1.98;;;;;;;22.14;57.07;100553.00;5011584;28;20408;-77
2022/09/13 05:39:48;;;;;;;7.50;2.40;;;;;;;22.28;56.64;100568.03;5011201;28;20044;-76
2022/09/13 05:42:32;;;;;;;7.50;1.90;;;;;;;22.00;56.62;100563.28;5012106;28;20404;-77
2022/09/13 05:45:17;;;;;;;4.07;1.70;;;;;;;21.56;57.64;100555.34;5011775;28;20053;-77
2022/09/13 05:48:02;;;;;;;;;;;;;;;21.39;58.31;100556.88;5012234;28;20409;-77
2022/09/13 05:50:46;;;;;;;11.80;2.03;;;;;;;21.26;58.95;100553.69;5012300;28;19917;-77
2022/09/13 05:53:31;;;;;;;4.22;1.90;;;;;;;21.20;58.93;100555.25;5012820;28;20066;-76
2022/09/13 05:56:19;;;;;;;6.53;1.88;;;;;;;21.29;59.64;100555.69;5011126;28;20053;-76
2022/09/13 05:59:04;;;;;;;6.40;1.80;;;;;;;21.49;59.20;100545.03;5011481;28;20041;-77
2022/09/13 06:01:49;;;;;;;6.72;1.77;;;;;;;21.83;57.49;100548.25;5009324;28;20069;-77
2022/09/13 06:04:34;;;;;;;7.10;2.35;;;;;;;21.94;56.99;100551.81;5010997;28;20060;-76
2022/09/13 06:07:19;;;;;;;7.30;2.85;;;;;;;21.69;58.00;100542.69;5013427;28;20049;-76
2022/09/13 06:10:04;;;;;;;13.15;1.92;;;;;;;21.55;58.37;100545.44;5011307;28;20049;-76
2022/09/13 06:12:49;;;;;;;7.95;1.90;;;;;;;21.81;58.53;100553.38;4991751;28;20058;-76
2022/09/13 06:15:34;;;;;;;5.45;1.27;;;;;;;22.15;57.96;100573.97;4991827;28;20061;-77
2022/09/13 06:18:19;;;;;;;6.22;1.10;;;;;;;22.66;56.51;100566.34;4992522;28;20508;-77
2022/09/13 06:21:16;;;;;;;1.77;1.55;;;;;;;23.16;54.89;100578.84;4991893;28;20513;-77
2022/09/13 06:24:02;;;;;;;6.82;1.58;;;;;;;23.25;54.54;100576.44;4992029;28;20057;-76
2022/09/13 06:26:47;;;;;;;6.82;1.67;;;;;;;23.14;55.00;100572.94;4991814;28;20057;-76
2022/09/13 06:29:31;;;;;;;5.10;1.45;;;;;;;23.11;55.22;100570.94;4991497;28;20053;-76
2022/09/13 06:32:16;;;;;;;6.47;1.10;;;;;;;23.26;54.90;100578.00;4991926;28;20041;-76
2022/09/13 06:35:00;;;;;;;8.70;1.50;;;;;;;23.06;55.43;100578.94;4992755;28;20049;-76
2022/09/13 06:37:45;;;;;;;6.93;1.92;;;;;;;23.11;55.18;100584.06;4995423;28;20054;-76
2022/09/13 06:40:29;;;;;;;7.22;2.85;;;;;;;21.83;58.33;100570.41;4995219;28;20049;-77
2022/09/13 06:43:14;;;;;;;4.70;1.67;;;;;;;22.34;58.47;100561.69;4995347;28;20413;-76
2022/09/13 06:46:05;;;;;;;5.03;2.00;;;;;;;22.32;57.27;100568.81;4995286;28;20295;-76
2022/09/13 06:48:50;;;;;;;2.88;1.40;;;;;;;22.69;56.50;100571.91;4998995;28;20065;-77
2022/09/13 06:51:35;;;;;;;9.18;3.13;;;;;;;22.14;58.06;100566.88;4995568;28;20048;-76
2022/09/13 06:54:20;;;;;;;9.90;2.63;;;;;;;22.01;59.21;100571.22;4995043;28;20054;-77
2022/09/13 06:57:05;;;;;;;4.63;1.25;;;;;;;22.88;56.94;100568.69;5012753;28;20053;-76
2022/09/13 06:59:49;;;;;;;4.25;2.25;;;;;;;23.40;55.29;100574.38;4997224;28;20536;-76
2022/09/13 07:02:34;;;;;;;;;;;;;;;22.50;57.67;100562.03;4995528;28;20053;-76
2022/09/13 07:05:19;;;;;;;3.33;1.60;;;;;;;23.18;56.00;100570.91;4995311;28;19913;-76
2022/09/13 07:08:04;;;;;;;5.43;3.15;;;;;;;23.40;55.46;100574.38;4995041;28;20049;-76
2022/09/13 07:10:48;;;;;;;6.00;2.80;;;;;;;23.25;55.86;100565.34;4994826;28;20069;-76
2022/09/13 07:13:34;;;;;;;6.18;2.90;;;;;;;23.19;56.20;100564.19;5011788;28;20057;-76
2022/09/13 07:16:21;;;;;;;5.57;1.90;;;;;;;23.56;55.15;100571.94;5011483;28;20041;-76
2022/09/13 07:19:16;;;;;;;5.60;2.88;;;;;;;23.48;55.29;100566.81;4994488;28;20508;-77
2022/09/13 07:22:01;;;;;;;4.25;1.73;;;;;;;23.55;55.05;100570.34;4994743;28;20049;-76
2022/09/13 07:24:46;;;;;;;4.75;2.00;;;;;;;23.91;53.74;100573.66;4994599;28;20074;-76
2022/09/13 07:27:31;;;;;;;4.72;2.03;;;;;;;23.73;54.50;100573.78;4994563;28;20512;-76
2022/09/13 07:30:16;;;;;;;4.15;2.80;;;;;;;23.51;54.69;100566.81;4994266;28;20049;-76
2022/09/13 07:33:01;;;;;;;8.50;3.28;;;;;;;23.31;55.53;100568.50;4994411;28;20053;-76
2022/09/13 07:35:45;;;;;;;14.88;3.80;;;;;;;23.28;55.78;100569.28;4994635;28;20081;-77
2022/09/13 07:38:30;;;;;;;6.40;2.08;;;;;;;23.35;53.18;100564.50;4994173;28;20053;-76
2022/09/13 07:41:20;;;;;;;8.55;2.00;;;;;;;23.47;53.23;100568.78;4996963;28;20061;-76
2022/09/13 07:44:07;;;;;;;3.92;2.00;;;;;;;23.79;53.62;100563.81;4994197;28;20065;-76
2022/09/13 07:46:52;;;;;;;8.00;2.75;;;;;;;23.81;53.77;100561.44;4998534;28;20057;-76
2022/09/13 07:49:37;;;;;;;5.60;2.45;;;;;;;23.66;54.14;100561.94;4994108;28;20062;-76
2022/09/13 07:52:22;;;;;;;5.80;3.17;;;;;;;23.69;53.89;100564.69;4994198;28;20049;-76
2022/09/13 07:55:06;;;;;;;3.63;1.92;;;;;;;23.90;53.36;100568.50;4994516;28;20366;-76
2022/09/13 07:57:51;;;;;;;5.43;1.65;;;;;;;24.18;52.89;100585.72;4993999;28;20053;-76
2022/09/13 08:00:36;;;;;;;15.02;3.42;;;;;;;24.16;52.70;100590.09;4993919;28;20053;-76
2022/09/13 08:03:20;;;;;;;6.40;2.85;;;;;;;23.79;54.37;100588.03;4994563;28;20536;-76
2022/09/13 08:06:06;;;;;;;10.73;2.85;;;;;;;24.19;52.84;100578.19;4994014;28;20049;-76
2022/09/13 08:08:51;;;;;;;3.65;2.05;;;;;;;24.23;53.10;100574.16;4993600;28;20061;-77
2022/09/13 08:11:37;;;;;;;5.13;2.53;;;;;;;24.59;52.65;100582.94;4993947;28;20061;-76
2022/09/13 08:14:22;;;;;;;45.72;3.58;;;;;;;23.65;55.11;100588.13;4993607;28;20057;-76
2022/09/13 08:17:09;;;;;;;5.07;2.22;;;;;;;24.00;54.21;100589.84;4993725;28;20051;-76
2022/09/13 08:19:54;;;;;;;6.78;1.13;;;;;;;24.41;52.34;100589.91;4993319;28;20049;-76
2022/09/13 08:22:38;;;;;;;12.10;2.53;;;;;;;24.52;52.14;100590.59;4993440;28;20049;-76
2022/09/13 08:25:23;;;;;;;8.82;1.92;;;;;;;23.92;55.12;100591.13;4993561;28;20508;-77
2022/09/13 08:28:13;;;;;;;6.65;2.63;;;;;;;24.13;54.72;100593.69;4993516;28;20526;-76
2022/09/13 08:31:09;;;;;;;6.85;2.30;;;;;;;24.45;53.16;100585.88;4993370;28;20053;-76
2022/09/13 08:33:54;;;;;;;6.32;2.17;;;;;;;24.42;52.87;100595.06;4993326;28;20049;-76
2022/09/13 08:36:40;;;;;;;7.45;1.70;;;;;;;24.53;52.20;100600.50;4993303;28;20053;-76
2022/09/13 08:39:24;;;;;;;2.38;1.98;;;;;;;25.18;52.00;100596.59;4992978;28;20398;-76
2022/09/13 08:42:23;;;;;;;4.25;1.95;;;;;;;25.24;51.53;100597.72;4993237;28;20409;-76
2022/09/13 08:45:08;;;;;;;2.72;2.50;;;;;;;24.91;52.96;100601.31;4993217;28;20512;-76
2022/09/13 08:48:05;;;;;;;5.90;1.83;;;;;;;24.79;52.58;100599.03;4995918;28;20508;-76
2022/09/13 08:50:57;;;;;;;2.70;1.30;;;;;;;25.24;50.09;100597.72;4993037;28;20046;-76
2022/09/13 08:53:47;;;;;;;2.13;1.38;;;;;;;24.89;51.96;100606.50;5024105;23;20056;-81
2022/09/13 08:56:52;;;;;;;4.95;1.65;;;;;;;24.71;52.70;100610.25;5031337;28;20076;-80
2022/09/13 08:59:40;;;;;;;;;;;;;;;24.90;51.32;100602.50;5045642;28;20044;-79
2022/09/13 09:02:50;;;;;;;2.25;1.88;;;;;;;24.82;52.93;100603.75;5035084;28;19917;-81
2022/09/13 09:05:48;;;;;;;9.75;1.13;;;;;;;25.19;51.49;100606.53;5026893;28;20528;-80
2022/09/13 09:08:45;;;;;;;3.20;1.83;;;;;;;25.65;49.83;100611.47;5029690;28;20052;-80
2022/09/13 09:11:49;;;;;;;6.00;1.70;;;;;;;25.85;48.76;100598.41;5027709;28;20488;-81
2022/09/13 09:14:43;;;;;;;3.22;2.40;;;;;;;25.74;49.75;100608.19;5027942;28;20519;-81
2022/09/13 09:17:36;;;;;;;5.53;2.17;;;;;;;25.34;51.35;100612.69;5012624;28;20393;-80
2022/09/13 09:20:40;;;;;;;3.45;1.00;;;;;;;25.80;48.78;100612.06;5011518;28;20045;-81
2022/09/13 09:23:28;;;;;;;3.73;2.40;;;;;;;25.97;48.00;100608.19;5012073;28;20049;-81
2022/09/13 09:26:17;;;;;;;3.08;1.80;;;;;;;25.08;49.92;100611.44;5026853;28;20413;-81
2022/09/13 09:29:25;;;;;;;5.10;1.77;;;;;;;25.44;50.29;100618.13;5030485;28;20559;-82
2022/09/13 09:32:36;;;;;;;3.33;2.03;;;;;;;25.73;49.98;100621.31;5014056;28;20539;-84
2022/09/13 09:35:46;;;;;;;3.78;2.72;;;;;;;25.86;49.55;100615.94;5012542;28;20053;-85
2022/09/13 09:38:36;;;;;;;1.20;0.90;;;;;;;25.75;48.88;100604.19;5027539;28;20056;-83
2022/09/13 09:41:25;;;;;;;4.63;2.80;;;;;;;25.18;52.04;100609.72;5025248;28;20053;-82
2022/09/13 09:44:19;;;;;;;4.25;2.50;;;;;;;25.63;50.86;100601.97;5028463;28;20065;-83
2022/09/13 09:47:27;;;;;;;8.43;2.28;;;;;;;25.73;51.17;100603.81;5026349;28;20056;-82
2022/09/13 09:50:17;;;;;;;4.00;1.75;;;;;;;25.59;51.56;100595.66;5015318;28;20041;-82
2022/09/13 09:53:02;;;;;;;5.03;2.53;;;;;;;25.69;49.77;100594.72;5027407;28;20052;-80
2022/09/13 09:55:47;;;;;;;;;;;;;;;25.47;50.06;100600.56;5012119;28;20515;-80
2022/09/13 09:58:39;;;;;;;2.22;1.10;;;;;;;25.60;49.50;100600.03;5011540;28;19917;-83
2022/09/13 10:01:33;;;;;;;14.80;3.25;;;;;;;25.71;49.87;100589.50;5027495;28;20541;-82
2022/09/13 10:04:21;;;;;;;3.50;1.73;;;;;;;25.70;49.22;100587.94;5011548;28;20428;-82
2022/09/13 10:07:20;;;;;;;2.58;1.15;;;;;;;25.47;50.07;100588.63;5011624;28;20052;-80
2022/09/13 10:10:19;;;;;;;5.75;1.85;;;;;;;25.47;49.46;100583.84;5026740;28;20057;-80
2022/09/13 10:13:11;;;;;;;4.43;2.75;;;;;;;25.61;49.83;100576.53;5033484;28;20049;-82
2022/09/13 10:16:01;;;;;;;5.35;2.47;;;;;;;26.08;49.09;100578.16;5017334;28;20061;-81
2022/09/13 10:18:47;;;;;;;4.70;2.30;;;;;;;26.33;47.62;100578.53;5027917;28;20413;-83
2022/09/13 10:21:34;;;;;;;5.03;3.58;;;;;;;26.41;48.05;100578.41;5018310;28;20057;-83
2022/09/13 10:24:20;;;;;;;8.15;3.03;;;;;;;26.24;48.56;100581.09;5014854;28;20049;-83
2022/09/13 10:27:21;;;;;;;5.20;3.90;;;;;;;26.16;49.46;100567.69;5011082;28;20069;-80
2022/09/13 10:30:06;;;;;;;7.10;2.55;;;;;;;26.20;48.63;100558.03;5031322;28;20044;-82
2022/09/13 10:32:55;;;;;;;13.90;4.88;;;;;;;26.61;46.94;100570.88;5016035;28;20428;-80
2022/09/13 10:35:47;;;;;;;7.22;5.57;;;;;;;26.67;47.04;100569.91;5013964;28;20037;-80
2022/09/13 10:38:38;;;;;;;6.50;4.68;;;;;;;26.57;47.40;100565.31;5010377;28;20044;-82
2022/09/13 10:41:27;;;;;;;5.40;1.98;;;;;;;26.71;46.76;100564.28;5015582;28;20060;-83
2022/09/13 10:44:44;;;;;;;6.10;2.90;;;;;;;26.42;47.65;100557.66;5017958;28;20049;-84
2022/09/13 10:47:32;;;;;;;7.07;3.70;;;;;;;26.49;47.19;100549.97;5014214;28;20113;-85
2022/09/13 10:50:22;;;;;;;4.65;2.78;;;;;;;26.58;46.97;100554.97;5019205;28;20052;-84
2022/09/13 10:53:35;;;;;;;3.92;3.30;;;;;;;26.68;46.60;100553.97;5008207;28;20158;-86
2022/09/13 10:56:26;;;;;;;4.95;1.90;;;;;;;26.36;47.55;100555.34;5022072;28;20060;-82
2022/09/13 10:59:28;;;;;;;8.02;3.20;;;;;;;26.43;47.63;100542.50;5017890;28;20049;-85
2022/09/13 11:02:21;;;;;;;4.88;2.75;;;;;;;26.77;47.09;100543.00;5033661;28;20519;-85
2022/09/13 11:05:25;;;;;;;5.18;3.03;;;;;;;26.58;46.97;100538.22;5007045;28;20524;-84
2022/09/13 11:08:31;;;;;;;11.82;3.83;;;;;;;26.78;46.14;100525.84;5015629;28;20048;-84
2022/09/13 11:11:47;;;;;;;4.43;2.70;;;;;;;26.86;46.56;100534.09;5014534;28;20053;-82
2022/09/13 11:14:50;;;;;;;4.55;3.70;;;;;;;27.19;45.27;100521.81;5008999;28;20069;-83
2022/09/13 11:17:56;;;;;;;3.85;1.90;;;;;;;26.62;46.29;100513.81;5032410;28;20044;-83
2022/09/13 11:21:25;;;;;;;7.53;2.97;;;;;;;26.53;46.69;100527.56;5029035;28;20115;-83
2022/09/13 11:24:44;;;;;;;5.53;3.70;;;;;;;26.58;46.04;100519.50;4997594;28;20053;-84
2022/09/13 11:27:59;;;;;;;3.33;1.90;;;;;;;26.76;46.63;100525.50;4994546;28;20053;-83
2022/09/13 11:30:47;;;;;;;2.55;1.35;;;;;;;26.41;47.05;100525.44;4996975;28;20057;-82
2022/09/13 11:33:46;;;;;;;3.42;1.55;;;;;;;26.66;47.43;100520.16;5006957;28;20054;-85
2022/09/13 11:37:12;;;;;;;2.42;1.67;;;;;;;26.54;46.36;100524.34;5011283;28;20404;-84
2022/09/13 11:40:20;;;;;;;3.22;1.30;;;;;;;26.35;47.29;100528.72;5014266;28;20512;-84
2022/09/13 11:43:40;;;;;;;4.35;1.35;;;;;;;25.85;48.48;100525.22;5016257;28;20049;-79
2022/09/13 11:46:31;;;;;;;4.55;1.67;;;;;;;26.37;47.21;100523.47;5005222;28;20529;-83
2022/09/13 11:49:48;;;;;;;6.60;2.00;;;;;;;26.90;45.99;100516.06;5016243;28;20057;-83
2022/09/13 11:53:02;;;;;;;2.75;1.92;;;;;;;26.53;46.62;100519.19;5013749;28;20117;-82
2022/09/13 11:55:59;;;;;;;5.55;2.17;;;;;;;26.50;46.78;100514.50;5013717;28;20049;-80
2022/09/13 11:58:53;;;;;;;1.95;1.33;;;;;;;26.53;46.38;100502.47;5012871;28;20131;-80
2022/09/13 12:01:48;;;;;;;12.05;2.67;;;;;;;26.83;43.94;100505.03;5013681;28;20465;-82
2022/09/13 12:05:04;;;;;;;2.83;1.13;;;;;;;26.33;46.49;100500.47;5013183;28;20048;-82
2022/09/13 12:07:56;;;;;;;6.18;1.55;;;;;;;27.23;44.31;100497.38;5023476;28;20524;-81
2022/09/13 12:10:58;;;;;;;2.55;1.38;;;;;;;26.58;46.05;100486.00;5012266;28;20125;-82
2022/09/13 12:13:49;;;;;;;0.65;0.55;;;;;;;26.16;47.11;100487.59;5012264;28;20041;-82
2022/09/13 12:16:39;;;;;;;7.53;1.50;;;;;;;26.39;46.53;100478.44;5006976;28;20053;-82
2022/09/13 12:19:44;;;;;;;2.65;1.30;;;;;;;26.05;47.14;100473.09;5010236;28;20401;-79
2022/09/13 12:22:33;;;;;;;1.47;0.87;;;;;;;25.96;47.62;100470.06;5010318;28;20049;-82
2022/09/13 12:25:25;;;;;;;2.28;1.10;;;;;;;25.66;48.37;100478.56;5020177;28;20413;-83
2022/09/13 12:28:26;;;;;;;2.88;1.10;;;;;;;25.66;48.20;100479.34;5012334;28;20049;-83
2022/09/13 12:31:26;;;;;;;3.08;1.70;;;;;;;26.32;46.63;100475.78;5015025;28;20168;-85
2022/09/13 12:34:33;;;;;;;1.58;1.15;;;;;;;27.01;44.94;100476.75;5012667;28;20053;-84
2022/09/13 12:37:37;;;;;;;0.35;0.35;;;;;;;26.62;44.97;100477.56;5016977;28;20045;-83
2022/09/13 12:40:42;;;;;;;2.80;1.20;;;;;;;26.16;46.93;100472.91;5009442;28;20385;-83
2022/09/13 12:43:56;;;;;;;2.67;1.48;;;;;;;26.39;46.29;100464.50;5008874;28;20044;-82
2022/09/13 12:46:50;;;;;;;5.03;1.90;;;;;;;26.16;46.98;100462.50;5027357;28;20052;-81
2022/09/13 12:50:16;;;;;;;2.30;1.40;;;;;;;25.98;47.06;100462.88;5024448;28;20041;-82
2022/09/13 12:53:23;;;;;;;3.45;1.23;;;;;;;25.51;48.58;100456.50;5024513;28;20056;-81
2022/09/13 12:56:13;;;;;;;5.57;2.03;;;;;;;25.55;48.44;100462.03;5008893;28;20041;-82
2022/09/13 12:59:20;;;;;;;3.70;1.90;;;;;;;26.58;45.49;100463.69;5023789;28;20053;-82
2022/09/13 13:02:32;;;;;;;2.42;1.40;;;;;;;26.93;44.60;100459.38;5015548;28;20049;-81
2022/09/13 13:05:43;;;;;;;5.20;1.88;;;;;;;27.88;42.36;100463.88;5012478;28;20049;-83
2022/09/13 13:08:29;;;;;;;5.45;2.40;;;;;;;27.37;42.91;100465.56;5014954;28;20049;-82
2022/09/13 13:11:14;;;;;;;5.97;1.88;;;;;;;28.27;40.27;100455.25;5017934;28;20053;-82
2022/09/13 13:14:08;;;;;;;3.25;1.58;;;;;;;28.11;41.35;100457.25;5012340;28;20524;-82
2022/09/13 13:16:53;;;;;;;4.70;2.28;;;;;;;27.90;41.63;100461.41;5013752;28;20053;-83
2022/09/13 13:19:38;;;;;;;2.10;1.58;;;;;;;26.65;44.92;100457.19;5011124;28;20523;-81
2022/09/13 13:22:41;;;;;;;1.30;1.00;;;;;;;26.47;45.32;100454.75;5016208;28;20405;-82